Time;durP1;ratioP1;P1;durP2;ratioP2;P2;SDS_P1;SDS_P2;PMS_P1;PMS_P2;Temp;Humidity;BMP_temperature;BMP_pressure;BME280_temperature;BME280_humidity;BME280_pressure;Samples;Min_cycle;Max_cycle;Signal;HPM_P1;HPM_P2
2023/11/24 00:00:35;;;;;;;;;;;;;;;24.84;34.17;101828.69;4199285;28;20347;-60
2023/11/24 00:02:38;;;;;;;;;;;;;;;24.88;34.30;101826.59;4199775;28;20372;-60
2023/11/24 00:04:39;;;;;;;;;;;;;;;24.91;34.08;101830.88;4198807;28;20010;-60
2023/11/24 00:06:41;;;;;;;;;;;;;;;24.92;33.95;101824.53;4198860;28;19931;-60
2023/11/24 00:08:43;;;;;;;;;;;;;;;24.91;34.11;101818.31;4199832;28;19936;-59
2023/11/24 00:10:45;;;;;;;;;;;;;;;24.92;34.20;101806.53;4199831;28;19920;-60
2023/11/24 00:12:46;;;;;;;;;;;;;;;24.93;34.43;101815.50;4199776;28;19921;-59
2023/11/24 00:14:48;;;;;;;;;;;;;;;24.93;33.95;101808.25;4198207;28;19925;-59
2023/11/24 00:16:49;;;;;;;;;;;;;;;24.91;34.09;101787.84;4199771;28;19928;-59
2023/11/24 00:18:51;;;;;;;;;;;;;;;24.91;34.14;101798.59;4199632;28;19927;-58
2023/11/24 00:20:55;;;;;;;;;;;;;;;24.86;34.21;101797.13;4199741;28;19927;-59
2023/11/24 00:22:57;;;;;;;;;;;;;;;24.86;34.38;101797.13;4199534;28;20035;-59
2023/11/24 00:24:59;;;;;;;;;;;;;;;24.87;34.22;101781.84;4199273;28;19927;-60
2023/11/24 00:27:00;;;;;;;;;;;;;;;24.88;34.25;101788.94;4199261;28;19920;-60
2023/11/24 00:29:02;;;;;;;;;;;;;;;24.90;34.03;101775.34;4199040;28;19928;-59
2023/11/24 00:31:05;;;;;;;;;;;;;;;24.92;34.32;101776.94;4199605;28;20513;-60
2023/11/24 00:33:07;;;;;;;;;;;;;;;24.93;34.32;101775.13;4199516;28;19973;-60
2023/11/24 00:35:10;;;;;;;;;;;;;;;24.93;34.16;101773.28;4199336;28;20449;-60
2023/11/24 00:37:17;;;;;;;;;;;;;;;24.92;34.13;101773.41;4199205;28;19921;-59
2023/11/24 00:39:23;;;;;;;;;;;;;;;24.91;34.15;101772.56;4199372;28;19927;-60
2023/11/24 00:41:27;;;;;;;;;;;;;;;24.90;34.15;101762.78;4199319;28;19981;-59
2023/11/24 00:43:29;;;;;;;;;;;;;;;24.87;34.60;101755.81;4198894;28;19966;-60
2023/11/24 00:45:30;;;;;;;;;;;;;;;24.85;34.54;101749.69;4199147;28;20304;-59
2023/11/24 00:47:32;;;;;;;;;;;;;;;24.87;34.63;101749.53;4199022;28;19920;-60
2023/11/24 00:49:34;;;;;;;;;;;;;;;24.88;34.21;101759.34;4198842;28;19981;-60
2023/11/24 00:51:36;;;;;;;;;;;;;;;24.88;34.48;101765.56;4198752;28;19946;-60
2023/11/24 00:53:37;;;;;;;;;;;;;;;24.90;34.29;101757.38;4199290;28;19927;-60
2023/11/24 00:55:39;;;;;;;;;;;;;;;24.93;34.17;101753.59;4199089;28;20014;-60
2023/11/24 00:57:40;;;;;;;;;;;;;;;24.92;34.29;101755.41;4198911;28;20349;-59
2023/11/24 00:59:44;;;;;;;;;;;;;;;24.93;34.29;101758.97;4198570;28;19920;-59
2023/11/24 01:01:45;;;;;;;;;;;;;;;24.91;34.38;101756.41;4197679;28;20442;-59
2023/11/24 01:03:47;;;;;;;;;;;;;;;24.90;34.27;101753.81;4198776;28;19959;-59
2023/11/24 01:05:49;;;;;;;;;;;;;;;24.87;34.29;101757.63;4198923;28;20219;-59
2023/11/24 01:07:50;;;;;;;;;;;;;;;24.87;34.46;101758.50;4198889;28;19965;-58
2023/11/24 01:09:52;;;;;;;;;;;;;;;24.88;34.31;101752.09;4198566;28;19943;-58
2023/11/24 01:11:53;;;;;;;;;;;;;;;24.92;34.15;101755.41;4198553;28;20015;-59
2023/11/24 01:13:55;;;;;;;;;;;;;;;24.93;34.23;101762.50;4198361;28;19921;-58
2023/11/24 01:15:57;;;;;;;;;;;;;;;24.96;34.14;101756.91;4198716;28;19924;-58
2023/11/24 01:18:00;;;;;;;;;;;;;;;24.96;34.42;101756.91;4198917;28;19924;-60
2023/11/24 01:20:03;;;;;;;;;;;;;;;24.97;34.19;101755.03;4198696;28;19924;-59
2023/11/24 01:22:05;;;;;;;;;;;;;;;24.97;34.32;101755.03;4198651;28;19924;-59
2023/11/24 01:24:06;;;;;;;;;;;;;;;24.97;34.23;101752.34;4198589;28;19978;-59
2023/11/24 01:26:11;;;;;;;;;;;;;;;24.96;34.33;101747.94;4198528;28;20460;-59
2023/11/24 01:28:15;;;;;;;;;;;;;;;24.94;34.59;101739.16;4198434;28;19924;-60
2023/11/24 01:30:17;;;;;;;;;;;;;;;24.93;34.28;101738.28;4198587;28;20358;-60
2023/11/24 01:32:19;;;;;;;;;;;;;;;24.93;34.53;101737.44;4198581;28;19952;-60
2023/11/24 01:34:20;;;;;;;;;;;;;;;24.94;34.50;101734.63;4198518;28;19927;-59
2023/11/24 01:36:22;;;;;;;;;;;;;;;24.96;34.30;101727.28;4198490;28;19920;-60
2023/11/24 01:38:23;;;;;;;;;;;;;;;24.97;34.33;101725.44;4198309;28;20011;-60
2023/11/24 01:40:25;;;;;;;;;;;;;;;24.98;34.41;101719.97;4198503;28;19920;-60
2023/11/24 01:42:27;;;;;;;;;;;;;;;24.99;34.49;101718.09;4197950;28;19939;-60
2023/11/24 01:44:29;;;;;;;;;;;;;;;25.00;34.52;101717.13;4198449;28;19935;-60
2023/11/24 01:46:31;;;;;;;;;;;;;;;24.99;34.25;101713.56;4198160;28;19921;-61
2023/11/24 01:48:32;;;;;;;;;;;;;;;24.99;34.50;101718.09;4198421;28;19996;-60
2023/11/24 01:50:34;;;;;;;;;;;;;;;24.97;34.42;101714.69;4198014;28;20283;-60
2023/11/24 01:52:36;;;;;;;;;;;;;;;24.96;34.66;101721.91;4198289;28;19920;-60
2023/11/24 01:54:38;;;;;;;;;;;;;;;24.95;34.42;101717.50;4197086;28;19924;-60
2023/11/24 01:56:40;;;;;;;;;;;;;;;24.98;34.66;101716.41;4197728;28;20411;-59
2023/11/24 01:58:41;;;;;;;;;;;;;;;25.01;34.55;101716.16;4198070;28;19924;-60
2023/11/24 02:00:44;;;;;;;;;;;;;;;25.02;34.42;101720.56;4197832;28;19924;-60
2023/11/24 02:02:45;;;;;;;;;;;;;;;25.04;34.52;101718.59;4197999;28;19921;-59
2023/11/24 02:04:47;;;;;;;;;;;;;;;25.04;34.30;101727.53;4198198;28;19924;-59
2023/11/24 02:06:49;;;;;;;;;;;;;;;25.04;34.41;101711.38;4197927;28;20062;-60
2023/11/24 02:08:51;;;;;;;;;;;;;;;25.04;34.28;101708.69;4197804;28;19927;-59
2023/11/24 02:10:52;;;;;;;;;;;;;;;25.05;34.33;101709.53;4197829;28;20024;-59
2023/11/24 02:12:54;;;;;;;;;;;;;;;25.04;34.60;101716.75;4197640;28;19928;-59
2023/11/24 02:14:55;;;;;;;;;;;;;;;25.03;34.66;101712.34;4197781;28;20011;-59
2023/11/24 02:16:59;;;;;;;;;;;;;;;25.01;34.43;101711.63;4197829;28;19921;-59
2023/11/24 02:19:01;;;;;;;;;;;;;;;25.01;34.42;101708.09;4197778;28;19924;-59
2023/11/24 02:21:03;;;;;;;;;;;;;;;25.02;34.66;101701.72;4197807;28;20357;-59
2023/11/24 02:23:04;;;;;;;;;;;;;;;25.03;34.57;101690.81;4196960;28;20377;-60
2023/11/24 02:25:06;;;;;;;;;;;;;;;25.07;34.59;101690.56;4197403;28;19921;-59
2023/11/24 02:27:08;;;;;;;;;;;;;;;25.08;34.38;101684.19;4197637;28;19962;-60
2023/11/24 02:29:09;;;;;;;;;;;;;;;25.09;34.61;101686.75;4197749;28;19924;-60
2023/11/24 02:31:11;;;;;;;;;;;;;;;25.09;34.59;101677.84;4197454;28;19920;-59
2023/11/24 02:33:13;;;;;;;;;;;;;;;25.08;34.41;101678.81;4196212;28;20391;-61
2023/11/24 02:35:15;;;;;;;;;;;;;;;25.06;34.36;101662.78;4197368;28;19999;-60
2023/11/24 02:37:17;;;;;;;;;;;;;;;25.04;34.35;101662.94;4197608;28;19928;-59
2023/11/24 02:39:18;;;;;;;;;;;;;;;25.02;34.43;101647.91;4197551;28;19971;-59
2023/11/24 02:41:22;;;;;;;;;;;;;;;25.01;34.58;101644.34;4197447;28;19928;-59
2023/11/24 02:43:24;;;;;;;;;;;;;;;25.00;34.73;101639.94;4197199;28;19921;-60
2023/11/24 02:45:26;;;;;;;;;;;;;;;25.01;34.82;101647.03;4197469;28;20387;-60
2023/11/24 02:47:27;;;;;;;;;;;;;;;25.03;34.51;101628.91;4197002;28;19956;-60
2023/11/24 02:49:32;;;;;;;;;;;;;;;25.06;34.46;101626.97;4197152;28;20370;-60
2023/11/24 02:51:34;;;;;;;;;;;;;;;25.08;34.47;101616.91;4197168;28;19960;-60
2023/11/24 02:53:36;;;;;;;;;;;;;;;25.08;34.44;101622.28;4197418;28;19948;-60
2023/11/24 02:55:38;;;;;;;;;;;;;;;25.08;34.71;101614.22;4196882;28;20302;-60
2023/11/24 02:57:39;;;;;;;;;;;;;;;25.06;34.84;101619.72;4197121;28;19928;-60
2023/11/24 02:59:41;;;;;;;;;;;;;;;25.06;34.36;101608.13;4197206;28;19920;-60
2023/11/24 03:01:42;;;;;;;;;;;;;;;25.03;34.81;101611.91;4196907;28;19920;-60
2023/11/24 03:03:44;;;;;;;;;;;;;;;25.02;34.67;101611.06;4197029;28;19920;-60
2023/11/24 03:05:46;;;;;;;;;;;;;;;25.03;34.71;101615.47;4196613;28;19920;-60
2023/11/24 03:07:47;;;;;;;;;;;;;;;25.03;34.89;101610.09;4196847;28;19971;-60
2023/11/24 03:09:49;;;;;;;;;;;;;;;25.07;34.84;101607.13;4196822;28;20093;-59
2023/11/24 03:11:53;;;;;;;;;;;;;;;25.09;34.49;101607.84;4197123;28;19927;-60
2023/11/24 03:13:55;;;;;;;;;;;;;;;25.10;34.68;101606.88;4197032;28;19967;-60
2023/11/24 03:15:56;;;;;;;;;;;;;;;25.11;34.70;101606.75;4197065;28;19920;-60
2023/11/24 03:17:58;;;;;;;;;;;;;;;25.11;34.64;101604.03;4197034;28;19928;-59
2023/11/24 03:20:00;;;;;;;;;;;;;;;25.10;34.61;101591.56;4197027;28;19925;-60
2023/11/24 03:22:01;;;;;;;;;;;;;;;24.99;34.47;101576.31;4196923;28;19947;-61
2023/11/24 03:24:03;;;;;;;;;;;;;;;25.07;34.77;101589.16;4196560;28;19920;-60
2023/11/24 03:26:08;;;;;;;;;;;;;;;25.05;34.53;101588.41;4197067;28;19924;-59
2023/11/24 03:28:10;;;;;;;;;;;;;;;25.06;34.62;101584.75;4196943;28;20019;-60
2023/11/24 03:30:12;;;;;;;;;;;;;;;25.06;34.88;101579.38;4197030;28;20457;-60
2023/11/24 03:32:14;;;;;;;;;;;;;;;25.09;34.65;101581.78;4196722;28;20018;-59
2023/11/24 03:34:15;;;;;;;;;;;;;;;25.10;35.03;101575.41;4196859;28;20015;-60
2023/11/24 03:36:17;;;;;;;;;;;;;;;25.12;34.90;101572.63;4196944;28;19920;-59
2023/11/24 03:38:19;;;;;;;;;;;;;;;25.13;34.49;101563.53;4196724;28;20387;-58
2023/11/24 03:40:20;;;;;;;;;;;;;;;25.13;34.79;101574.31;4196747;28;20007;-60
2023/11/24 03:42:22;;;;;;;;;;;;;;;25.13;34.57;101572.47;4196878;28;20349;-59
2023/11/24 03:44:23;;;;;;;;;;;;;;;25.12;34.60;101567.25;4196588;28;20028;-59
2023/11/24 03:46:25;;;;;;;;;;;;;;;25.11;34.63;101566.38;4196662;28;19974;-60
2023/11/24 03:48:30;;;;;;;;;;;;;;;25.10;34.63;101567.34;4196732;28;20384;-59
2023/11/24 03:50:31;;;;;;;;;;;;;;;25.09;34.87;101564.78;4196572;28;20291;-60
2023/11/24 03:52:33;;;;;;;;;;;;;;;25.08;34.83;101555.00;4196492;28;19920;-60
2023/11/24 03:54:34;;;;;;;;;;;;;;;25.11;34.49;101557.44;4196836;28;20376;-59
2023/11/24 03:56:37;;;;;;;;;;;;;;;25.12;34.61;101551.09;4196823;28;19927;-59
2023/11/24 03:58:38;;;;;;;;;;;;;;;25.15;34.60;101554.38;4196821;28;19920;-59
2023/11/24 04:00:40;;;;;;;;;;;;;;;25.16;34.91;101553.38;4196987;28;19928;-59
2023/11/24 04:02:42;;;;;;;;;;;;;;;25.17;34.55;101541.63;4196579;28;20015;-59
2023/11/24 04:04:46;;;;;;;;;;;;;;;25.18;34.90;101537.09;4196758;28;20395;-59
2023/11/24 04:06:48;;;;;;;;;;;;;;;25.18;34.79;101534.41;4196438;28;20456;-59
2023/11/24 04:08:49;;;;;;;;;;;;;;;25.17;34.63;101535.41;4178964;28;19927;-59
2023/11/24 04:10:51;;;;;;;;;;;;;;;25.15;34.68;101532.84;4196783;28;20318;-60
2023/11/24 04:12:53;;;;;;;;;;;;;;;25.15;34.79;101546.31;4195436;28;19921;-58
2023/11/24 04:14:55;;;;;;;;;;;;;;;25.14;34.71;101552.66;4196527;28;19920;-59
2023/11/24 04:16:56;;;;;;;;;;;;;;;25.16;34.91;101553.38;4196449;28;19920;-59
2023/11/24 04:19:02;;;;;;;;;;;;;;;25.16;34.66;101556.06;4196831;28;20359;-60
2023/11/24 04:21:06;;;;;;;;;;;;;;;25.18;34.79;101546.03;4196437;28;19955;-58
2023/11/24 04:23:08;;;;;;;;;;;;;;;25.19;34.71;101547.72;4196367;28;19960;-60
2023/11/24 04:25:10;;;;;;;;;;;;;;;25.22;34.87;101552.00;4196577;28;20331;-59
2023/11/24 04:27:12;;;;;;;;;;;;;;;25.22;34.44;101552.00;4196583;28;20422;-59
2023/11/24 04:29:13;;;;;;;;;;;;;;;25.21;34.64;101550.28;4196532;28;19959;-59
2023/11/24 04:31:15;;;;;;;;;;;;;;;25.21;35.01;101547.59;4196467;28;19921;-59
2023/11/24 04:33:16;;;;;;;;;;;;;;;25.20;34.69;101540.50;4195209;28;19971;-59
2023/11/24 04:35:18;;;;;;;;;;;;;;;25.17;34.95;101541.63;4196627;28;19921;-59
2023/11/24 04:37:20;;;;;;;;;;;;;;;25.17;34.78;101543.47;4196303;28;20019;-60
2023/11/24 04:39:21;;;;;;;;;;;;;;;25.17;34.73;101543.47;4196498;28;20451;-59
2023/11/24 04:41:23;;;;;;;;;;;;;;;25.18;35.03;101537.94;4196224;28;20011;-59
2023/11/24 04:43:26;;;;;;;;;;;;;;;25.20;34.63;101527.03;4196087;28;19924;-59
2023/11/24 04:45:28;;;;;;;;;;;;;;;25.23;34.70;101528.63;4197530;28;19928;-59
2023/11/24 04:47:29;;;;;;;;;;;;;;;25.23;34.80;101521.41;4199253;28;19960;-62
2023/11/24 04:49:31;;;;;;;;;;;;;;;25.24;34.82;101524.94;4199133;28;19928;-59
2023/11/24 04:51:33;;;;;;;;;;;;;;;25.24;34.86;101517.72;4198788;28;20355;-59
2023/11/24 04:53:34;;;;;;;;;;;;;;;25.23;34.70;101518.72;4199053;28;19921;-59
2023/11/24 04:55:38;;;;;;;;;;;;;;;25.23;34.84;101523.25;4199147;28;19927;-60
2023/11/24 04:57:41;;;;;;;;;;;;;;;25.20;34.66;101506.38;4199080;28;19920;-60
2023/11/24 04:59:42;;;;;;;;;;;;;;;25.18;34.59;101511.03;4199038;28;19920;-60
2023/11/24 05:01:44;;;;;;;;;;;;;;;25.17;34.86;101497.72;4198990;28;19970;-60
2023/11/24 05:03:49;;;;;;;;;;;;;;;25.17;35.04;101509.31;4199171;28;20370;-60
2023/11/24 05:05:51;;;;;;;;;;;;;;;25.20;34.71;101517.16;4198700;28;19925;-60
2023/11/24 05:07:53;;;;;;;;;;;;;;;25.22;35.01;101510.78;4198984;28;19920;-60
2023/11/24 05:09:54;;;;;;;;;;;;;;;25.23;34.93;101505.25;4199095;28;19920;-60
2023/11/24 05:11:56;;;;;;;;;;;;;;;25.24;34.82;101489.94;4199048;28;19921;-59
2023/11/24 05:13:57;;;;;;;;;;;;;;;25.23;34.68;101499.03;4198894;28;19985;-60
2023/11/24 05:15:59;;;;;;;;;;;;;;;25.23;34.80;101499.03;4198819;28;19974;-60
2023/11/24 05:18:03;;;;;;;;;;;;;;;25.22;34.69;101497.31;4198699;28;19969;-60
2023/11/24 05:20:05;;;;;;;;;;;;;;;25.22;34.75;101490.09;4198491;28;19920;-60
2023/11/24 05:22:07;;;;;;;;;;;;;;;25.20;34.89;101484.84;4198723;28;20384;-60
2023/11/24 05:24:09;;;;;;;;;;;;;;;25.19;34.82;101490.38;4198834;28;19924;-60
2023/11/24 05:26:11;;;;;;;;;;;;;;;25.19;34.93;101490.38;4198850;28;19926;-60
2023/11/24 05:28:12;;;;;;;;;;;;;;;25.20;34.77;101492.91;4198774;28;19943;-60
2023/11/24 05:30:15;;;;;;;;;;;;;;;25.21;34.71;101485.69;4198573;28;20391;-60
2023/11/24 05:32:17;;;;;;;;;;;;;;;25.26;34.79;101487.97;4198764;28;19927;-61
2023/11/24 05:34:19;;;;;;;;;;;;;;;25.27;34.96;101487.00;4198450;28;19920;-60
2023/11/24 05:36:20;;;;;;;;;;;;;;;25.27;34.82;101481.63;4198693;28;19920;-60
2023/11/24 05:38:22;;;;;;;;;;;;;;;25.27;34.73;101479.75;4198492;28;20382;-60
2023/11/24 05:40:24;;;;;;;;;;;;;;;25.26;34.74;101480.75;4198755;28;19927;-60
2023/11/24 05:42:25;;;;;;;;;;;;;;;25.26;34.99;101474.53;4198490;28;20011;-60
2023/11/24 05:44:27;;;;;;;;;;;;;;;25.25;34.81;101479.06;4198346;28;19967;-60
2023/11/24 05:46:28;;;;;;;;;;;;;;;25.23;34.82;101470.25;4198542;28;19920;-60
2023/11/24 05:48:30;;;;;;;;;;;;;;;25.24;34.91;101465.72;4198131;28;20395;-59
2023/11/24 05:50:32;;;;;;;;;;;;;;;25.25;34.64;101468.28;4196889;28;19977;-60
2023/11/24 05:52:34;;;;;;;;;;;;;;;25.26;34.73;101471.81;4197175;28;20003;-60
2023/11/24 05:54:35;;;;;;;;;;;;;;;25.29;34.98;101472.41;4198208;28;20008;-59
2023/11/24 05:56:37;;;;;;;;;;;;;;;25.29;34.74;101464.34;4197450;28;19920;-60
2023/11/24 05:58:38;;;;;;;;;;;;;;;25.29;34.99;101456.25;4198125;28;19927;-59
2023/11/24 06:00:40;;;;;;;;;;;;;;;25.30;34.79;101455.28;4198181;28;20466;-60
2023/11/24 06:02:42;;;;;;;;;;;;;;;25.29;34.69;101450.03;4197798;28;19990;-60
2023/11/24 06:04:44;;;;;;;;;;;;;;;25.29;34.98;101450.88;4197846;28;19920;-60
2023/11/24 06:06:47;;;;;;;;;;;;;;;25.29;34.78;101458.94;4196809;28;20010;-60
2023/11/24 06:08:48;;;;;;;;;;;;;;;25.28;34.86;101465.31;4197930;28;20003;-61
2023/11/24 06:10:50;;;;;;;;;;;;;;;25.27;34.84;101468.16;4197893;28;19920;-60
2023/11/24 06:12:52;;;;;;;;;;;;;;;25.28;34.76;101467.19;4197808;28;19924;-61
2023/11/24 06:14:53;;;;;;;;;;;;;;;25.28;34.71;101472.56;4197934;28;19920;-61
2023/11/24 06:16:55;;;;;;;;;;;;;;;25.30;35.07;101484.91;4197659;28;19920;-61
2023/11/24 06:18:57;;;;;;;;;;;;;;;25.32;34.59;101474.84;4197950;28;20379;-60
2023/11/24 06:21:02;;;;;;;;;;;;;;;25.34;34.83;101482.78;4197874;28;19924;-61
2023/11/24 06:23:04;;;;;;;;;;;;;;;25.34;34.67;101485.47;4197957;28;19928;-61
2023/11/24 06:25:05;;;;;;;;;;;;;;;25.33;34.57;101484.63;4197702;28;19943;-61
2023/11/24 06:27:07;;;;;;;;;;;;;;;25.33;34.75;101476.53;4196400;28;19921;-61
2023/11/24 06:29:09;;;;;;;;;;;;;;;25.32;34.68;101490.13;4197737;28;19958;-60
2023/11/24 06:31:12;;;;;;;;;;;;;;;25.29;34.86;101488.56;4197536;28;19921;-62
2023/11/24 06:33:15;;;;;;;;;;;;;;;25.26;35.02;101488.81;4197486;28;20307;-61
2023/11/24 06:35:16;;;;;;;;;;;;;;;25.25;34.87;101486.25;4197656;28;19927;-61
2023/11/24 06:37:18;;;;;;;;;;;;;;;25.27;35.05;101495.06;4197570;28;19963;-61
2023/11/24 06:39:21;;;;;;;;;;;;;;;25.27;34.76;101490.53;4197548;28;20372;-61
2023/11/24 06:41:23;;;;;;;;;;;;;;;25.29;34.72;101496.66;4197511;28;19924;-60
2023/11/24 06:43:25;;;;;;;;;;;;;;;25.31;34.92;101488.44;4197320;28;19927;-60
2023/11/24 06:45:26;;;;;;;;;;;;;;;25.30;34.84;101484.91;4197069;28;19920;-61
2023/11/24 06:47:28;;;;;;;;;;;;;;;25.30;34.73;101476.81;4196903;28;20062;-61
2023/11/24 06:49:29;;;;;;;;;;;;;;;25.29;34.95;101472.41;4197436;28;19967;-60
2023/11/24 06:51:32;;;;;;;;;;;;;;;25.28;34.51;101465.31;4197052;28;20003;-62
2023/11/24 06:53:33;;;;;;;;;;;;;;;25.27;34.79;101476.22;4197459;28;20409;-61
2023/11/24 06:55:35;;;;;;;;;;;;;;;25.25;34.92;101471.00;4197447;28;19926;-61
2023/11/24 06:57:38;;;;;;;;;;;;;;;25.25;34.65;101478.19;4197019;28;19921;-61
2023/11/24 06:59:40;;;;;;;;;;;;;;;25.25;35.06;101473.69;4197291;28;19982;-60
2023/11/24 07:01:41;;;;;;;;;;;;;;;25.27;34.78;101473.53;4196992;28;20129;-60
2023/11/24 07:03:43;;;;;;;;;;;;;;;25.29;34.97;101467.03;4196983;28;19920;-60
2023/11/24 07:05:46;;;;;;;;;;;;;;;25.30;34.84;101471.44;4197030;28;19920;-61
2023/11/24 07:07:48;;;;;;;;;;;;;;;25.32;34.36;101474.84;4196946;28;19920;-61
2023/11/24 07:09:49;;;;;;;;;;;;;;;25.31;34.31;101475.84;4197084;28;19964;-61
2023/11/24 07:11:51;;;;;;;;;;;;;;;25.31;34.70;101481.22;4196908;28;19920;-61
2023/11/24 07:13:52;;;;;;;;;;;;;;;25.30;34.59;101467.88;4197012;28;19925;-61
2023/11/24 07:15:55;;;;;;;;;;;;;;;25.28;34.39;101476.09;4196665;28;20003;-60
2023/11/24 07:17:57;;;;;;;;;;;;;;;25.27;34.51;101477.06;4196994;28;19927;-61
2023/11/24 07:19:59;;;;;;;;;;;;;;;25.27;34.32;101477.06;4197138;28;19921;-61
2023/11/24 07:22:01;;;;;;;;;;;;;;;25.26;34.45;101475.34;4197111;28;19921;-61
2023/11/24 07:24:03;;;;;;;;;;;;;;;25.27;34.58;101477.06;4196885;28;19928;-61
2023/11/24 07:26:05;;;;;;;;;;;;;;;25.27;34.27;101479.75;4197054;28;20016;-61
2023/11/24 07:28:07;;;;;;;;;;;;;;;25.27;34.28;101492.38;4196943;28;20398;-60
2023/11/24 07:30:09;;;;;;;;;;;;;;;25.27;34.02;101481.63;4196534;28;20380;-60
2023/11/24 07:32:11;;;;;;;;;;;;;;;25.27;33.96;101490.53;4196743;28;19920;-60
2023/11/24 07:34:13;;;;;;;;;;;;;;;25.27;34.07;101501.31;4196901;28;19967;-60
2023/11/24 07:36:15;;;;;;;;;;;;;;;25.28;33.92;101499.47;4196884;28;19926;-60
2023/11/24 07:38:17;;;;;;;;;;;;;;;25.27;33.84;101503.16;4196926;28;20343;-61
2023/11/24 07:40:18;;;;;;;;;;;;;;;25.25;33.93;101491.66;4196872;28;19920;-61
2023/11/24 07:42:22;;;;;;;;;;;;;;;25.22;33.85;101490.09;4196874;28;19920;-61
2023/11/24 07:44:28;;;;;;;;;;;;;;;25.22;34.11;101500.00;4196450;28;19924;-61
2023/11/24 07:46:30;;;;;;;;;;;;;;;25.23;33.90;101496.34;4196931;28;19920;-61
2023/11/24 07:48:33;;;;;;;;;;;;;;;25.23;34.06;101497.19;4196824;28;19962;-61
2023/11/24 07:50:35;;;;;;;;;;;;;;;25.25;33.79;101491.66;4196626;28;19921;-61
2023/11/24 07:52:36;;;;;;;;;;;;;;;25.25;33.85;101494.34;4196742;28;19928;-61
2023/11/24 07:54:41;;;;;;;;;;;;;;;25.26;33.53;101491.50;4196898;28;19921;-60
2023/11/24 07:56:43;;;;;;;;;;;;;;;25.26;33.53;101496.91;4196504;28;19929;-61
2023/11/24 07:58:44;;;;;;;;;;;;;;;25.26;33.46;101491.50;4196262;28;20425;-61
2023/11/24 08:00:46;;;;;;;;;;;;;;;25.25;33.36;101489.84;4195506;28;19920;-61
2023/11/24 08:02:47;;;;;;;;;;;;;;;25.25;33.60;101487.13;4196404;28;20276;-61
2023/11/24 08:04:49;;;;;;;;;;;;;;;25.24;33.62;101487.25;4196575;28;20455;-61
2023/11/24 08:06:51;;;;;;;;;;;;;;;25.23;33.63;101493.66;4196812;28;20415;-59
2023/11/24 08:08:52;;;;;;;;;;;;;;;25.23;33.32;101513.34;4196713;28;20377;-60
2023/11/24 08:10:54;;;;;;;;;;;;;;;25.24;33.29;101508.78;4196604;28;19931;-61
2023/11/24 08:12:55;;;;;;;;;;;;;;;25.24;33.08;101508.78;4196545;28;20403;-61
2023/11/24 08:15:02;;;;;;;;;;;;;;;25.25;33.01;101497.03;4195162;28;19999;-59
2023/11/24 08:17:04;;;;;;;;;;;;;;;25.25;33.21;101500.59;4196676;28;20360;-61
2023/11/24 08:19:05;;;;;;;;;;;;;;;25.26;33.17;101504.13;4196641;28;19921;-60
2023/11/24 08:21:09;;;;;;;;;;;;;;;25.25;32.78;101505.13;4198510;28;19966;-60
2023/11/24 08:23:13;;;;;;;;;;;;;;;25.25;32.82;101499.72;4199864;28;20360;-60
2023/11/24 08:25:15;;;;;;;;;;;;;;;25.23;32.67;101501.72;4199649;28;19920;-60
2023/11/24 08:27:18;;;;;;;;;;;;;;;25.20;32.62;101505.50;4199563;28;19927;-60
2023/11/24 08:29:20;;;;;;;;;;;;;;;25.18;32.81;101497.56;4199538;28;20450;-60
2023/11/24 08:31:21;;;;;;;;;;;;;;;25.18;32.86;101499.41;4199561;28;20288;-59
2023/11/24 08:33:23;;;;;;;;;;;;;;;25.18;33.06;101494.03;4199483;28;19926;-59
2023/11/24 08:35:27;;;;;;;;;;;;;;;25.18;32.88;101504.81;4199367;28;19921;-60
2023/11/24 08:37:28;;;;;;;;;;;;;;;25.19;32.59;101495.75;4199329;28;19927;-60
2023/11/24 08:39:35;;;;;;;;;;;;;;;25.20;32.53;101489.34;4199340;28;20391;-61
2023/11/24 08:41:38;;;;;;;;;;;;;;;25.20;32.68;101489.34;4199613;28;19983;-59
2023/11/24 08:43:41;;;;;;;;;;;;;;;25.20;32.75;101492.03;4197383;28;19924;-64
2023/11/24 08:45:42;;;;;;;;;;;;;;;25.08;33.49;101490.41;4185931;28;20569;-60
2023/11/24 08:47:44;;;;;;;;;;;;;;;25.09;33.17;101492.13;4193765;28;19924;-68
2023/11/24 08:49:45;;;;;;;;;;;;;;;25.15;32.80;101495.16;4195473;28;19928;-66
2023/11/24 08:51:47;;;;;;;;;;;;;;;25.19;32.67;101491.19;4196553;28;19963;-69
2023/11/24 08:53:49;;;;;;;;;;;;;;;25.23;32.42;101481.03;4198212;28;19920;-71
2023/11/24 08:55:50;;;;;;;;;;;;;;;25.28;32.53;101486.00;4198291;28;20093;-72
2023/11/24 08:57:53;;;;;;;;;;;;;;;25.23;32.77;101464.03;4198553;28;19985;-70
2023/11/24 08:59:55;;;;;;;;;;;;;;;25.35;32.55;101488.03;4198568;28;20023;-67
2023/11/24 09:01:58;;;;;;;;;;;;;;;25.35;32.27;101488.03;4198342;28;19926;-70
2023/11/24 09:03:59;;;;;;;;;;;;;;;25.37;32.29;101482.50;4190333;28;20450;-64
2023/11/24 09:06:02;;;;;;;;;;;;;;;25.36;32.20;101487.06;4198298;28;19924;-69
2023/11/24 09:08:05;;;;;;;;;;;;;;;25.38;32.26;101481.56;4198622;28;19921;-66
2023/11/24 09:10:08;;;;;;;;;;;;;;;25.39;34.79;101477.03;4198425;28;19990;-62
2023/11/24 09:12:12;;;;;;;;;;;;;;;25.36;34.05;101480.84;4198226;28;19928;-66
2023/11/24 09:14:14;;;;;;;;;;;;;;;25.30;33.53;101470.56;4198357;28;20101;-67
2023/11/24 09:16:17;;;;;;;;;;;;;;;25.36;33.14;101476.28;4198515;28;19926;-72
2023/11/24 09:18:21;;;;;;;;;;;;;;;25.41;32.83;101478.63;4198402;28;19920;-63
2023/11/24 09:20:24;;;;;;;;;;;;;;;25.43;32.48;101478.47;4197729;28;19979;-62
2023/11/24 09:22:26;;;;;;;;;;;;;;;25.45;32.67;101473.81;4198213;28;20017;-66
2023/11/24 09:24:27;;;;;;;;;;;;;;;25.47;32.61;101474.50;4198322;28;19947;-66
2023/11/24 09:26:29;;;;;;;;;;;;;;;25.48;33.28;101468.16;4197816;28;19920;-68
2023/11/24 09:28:30;;;;;;;;;;;;;;;25.46;32.74;101468.28;4198510;28;19955;-62
2023/11/24 09:30:32;;;;;;;;;;;;;;;25.48;32.79;101470.84;4197892;28;19920;-62
2023/11/24 09:32:37;;;;;;;;;;;;;;;25.49;32.42;101465.34;4196437;28;19929;-64
2023/11/24 09:34:39;;;;;;;;;;;;;;;25.52;32.12;101475.00;4198120;28;19928;-63
2023/11/24 09:36:42;;;;;;;;;;;;;;;25.49;32.49;101461.78;4197384;28;19927;-70
2023/11/24 09:38:44;;;;;;;;;;;;;;;25.52;32.32;101456.13;4198174;28;19931;-66
2023/11/24 09:40:45;;;;;;;;;;;;;;;25.52;32.15;101467.75;4197505;28;19927;-67
2023/11/24 09:42:47;;;;;;;;;;;;;;;25.55;32.29;101465.78;4197809;28;20003;-66
2023/11/24 09:44:54;;;;;;;;;;;;;;;25.58;32.30;101470.88;4197807;28;19921;-69
2023/11/24 09:46:57;;;;;;;;;;;;;;;25.60;32.16;101475.19;4197464;28;19921;-70
2023/11/24 09:49:01;;;;;;;;;;;;;;;25.60;32.20;101482.38;4196646;28;20010;-64
2023/11/24 09:51:05;;;;;;;;;;;;;;;25.62;32.10;101481.25;4197286;28;20483;-63
2023/11/24 09:53:12;;;;;;;;;;;;;;;25.64;31.66;101476.59;4197754;28;19924;-72
2023/11/24 09:55:14;;;;;;;;;;;;;;;25.67;31.59;101476.31;4197412;28;19931;-66
2023/11/24 09:57:16;;;;;;;;;;;;;;;25.69;32.32;101476.19;4197571;28;20294;-61
2023/11/24 09:59:18;;;;;;;;;;;;;;;25.67;32.20;101468.22;4197738;28;19920;-67
2023/11/24 10:01:21;;;;;;;;;;;;;;;25.65;32.23;101469.34;4197406;28;19920;-71
2023/11/24 10:03:23;;;;;;;;;;;;;;;25.65;31.53;101462.16;4197892;28;20039;-63
2023/11/24 10:05:29;;;;;;;;;;;;;;;25.66;31.50;101455.78;4197560;28;19932;-61
2023/11/24 10:07:31;;;;;;;;;;;;;;;25.66;31.49;101458.47;4197495;28;20383;-70
2023/11/24 10:09:33;;;;;;;;;;;;;;;25.69;31.48;101454.66;4197287;28;19927;-64
2023/11/24 10:11:38;;;;;;;;;;;;;;;25.70;31.93;101453.66;4197070;28;19970;-69
2023/11/24 10:13:43;;;;;;;;;;;;;;;25.69;31.56;101457.34;4197492;28;20106;-70
2023/11/24 10:15:50;;;;;;;;;;;;;;;25.70;31.37;101452.78;4197407;28;19978;-69
2023/11/24 10:17:52;;;;;;;;;;;;;;;25.72;31.15;101451.66;4197222;28;19943;-66
2023/11/24 10:19:54;;;;;;;;;;;;;;;25.71;31.47;101463.44;4197213;28;20353;-68
2023/11/24 10:21:56;;;;;;;;;;;;;;;25.68;31.32;101464.56;4196938;28;19921;-59
2023/11/24 10:23:57;;;;;;;;;;;;;;;25.66;30.87;101452.22;4197034;28;20338;-62
2023/11/24 10:25:59;;;;;;;;;;;;;;;25.66;31.08;101450.38;4197232;28;19926;-68